Terminal Aerodrome Forecast
Issued by NWS

Home | Current Version | Previous Version | Graphics & Text | Print | Product List | Glossary On
Versions: 1 2 3 4 5 6 7 8 9 10 11 12 13 14
932
FTUS42 KMHX 261132
TAFOAJ
TAF
KOAJ 261132Z 2612/2712 25005KT P6SM SCT007 BKN015
     FM261500 28007KT P6SM SCT040
     FM270000 19003KT P6SM FEW040
      AMD LTD TO CLD VIS AND WIND=

USA.gov is the U.S. government's official web portal to all federal, state and local government web resources and services.